sensor_id;sensor_type;location;lat;lon;timestamp;pressure;altitude;pressure_sealevel;temperature;humidity
38038;BME280;23843;51.320;12.340;2023-04-20T00:00:45;100694.91;;;6.11;100.00
38038;BME280;23843;51.320;12.340;2023-04-20T00:03:12;100697.19;;;6.21;100.00
38038;BME280;23843;51.320;12.340;2023-04-20T00:05:37;100698.88;;;6.24;100.00
38038;BME280;23843;51.320;12.340;2023-04-20T00:08:03;100695.84;;;6.08;100.00
38038;BME280;23843;51.320;12.340;2023-04-20T00:10:29;100691.72;;;5.99;100.00
38038;BME280;23843;51.320;12.340;2023-04-20T00:12:54;100690.59;;;6.08;100.00
38038;BME280;23843;51.320;12.340;2023-04-20T00:15:20;100689.06;;;6.01;100.00
38038;BME280;23843;51.320;12.340;2023-04-20T00:17:45;100691.72;;;5.99;100.00
38038;BME280;23843;51.320;12.340;2023-04-20T00:20:12;100692.88;;;5.89;100.00
38038;BME280;23843;51.320;12.340;2023-04-20T00:22:38;100691.22;;;5.85;100.00
38038;BME280;23843;51.320;12.340;2023-04-20T00:25:04;100695.75;;;5.80;100.00
38038;BME280;23843;51.320;12.340;2023-04-20T00:27:29;100684.63;;;5.72;100.00
38038;BME280;23843;51.320;12.340;2023-04-20T00:29:55;100685.44;;;5.74;100.00
38038;BME280;23843;51.320;12.340;2023-04-20T00:32:20;100683.66;;;5.74;100.00
38038;BME280;23843;51.320;12.340;2023-04-20T00:34:46;100684.72;;;5.69;100.00
38038;BME280;23843;51.320;12.340;2023-04-20T00:37:13;100681.22;;;5.68;100.00
38038;BME280;23843;51.320;12.340;2023-04-20T00:39:38;100677.19;;;5.56;100.00
38038;BME280;23843;51.320;12.340;2023-04-20T00:42:04;100678.03;;;5.57;100.00
38038;BME280;23843;51.320;12.340;2023-04-20T00:44:30;100672.56;;;5.65;100.00
38038;BME280;23843;51.320;12.340;2023-04-20T00:46:55;100665.53;;;5.65;100.00
38038;BME280;23843;51.320;12.340;2023-04-20T00:49:21;100664.53;;;5.69;100.00
38038;BME280;23843;51.320;12.340;2023-04-20T00:51:46;100659.16;;;5.74;100.00
38038;BME280;23843;51.320;12.340;2023-04-20T00:54:13;100654.72;;;5.76;100.00
38038;BME280;23843;51.320;12.340;2023-04-20T00:56:39;100666.13;;;5.75;100.00
38038;BME280;23843;51.320;12.340;2023-04-20T00:59:04;100667.94;;;5.73;100.00
38038;BME280;23843;51.320;12.340;2023-04-20T01:01:30;100659.97;;;5.76;100.00
38038;BME280;23843;51.320;12.340;2023-04-20T01:03:56;100660.22;;;5.67;100.00
38038;BME280;23843;51.320;12.340;2023-04-20T01:06:21;100666.94;;;5.77;100.00
38038;BME280;23843;51.320;12.340;2023-04-20T01:08:48;100660.78;;;5.78;100.00
38038;BME280;23843;51.320;12.340;2023-04-20T01:11:16;100654.72;;;5.76;100.00
38038;BME280;23843;51.320;12.340;2023-04-20T01:13:41;100651.06;;;5.80;100.00
38038;BME280;23843;51.320;12.340;2023-04-20T01:16:07;100650.88;;;5.88;100.00
38038;BME280;23843;51.320;12.340;2023-04-20T01:18:40;100653.44;;;5.89;100.00
38038;BME280;23843;51.320;12.340;2023-04-20T01:21:06;100653.50;;;5.88;100.00
38038;BME280;23843;51.320;12.340;2023-04-20T01:23:34;100652.84;;;5.79;100.00
38038;BME280;23843;51.320;12.340;2023-04-20T01:26:04;100650.31;;;5.76;100.00
38038;BME280;23843;51.320;12.340;2023-04-20T01:28:30;100650.28;;;5.78;100.00
38038;BME280;23843;51.320;12.340;2023-04-20T01:30:55;100650.34;;;5.75;100.00
38038;BME280;23843;51.320;12.340;2023-04-20T01:33:21;100653.34;;;5.63;100.00
38038;BME280;23843;51.320;12.340;2023-04-20T01:35:46;100649.97;;;5.57;100.00
38038;BME280;23843;51.320;12.340;2023-04-20T01:38:16;100651.75;;;5.57;100.00
38038;BME280;23843;51.320;12.340;2023-04-20T01:40:43;100649.09;;;5.58;100.00
38038;BME280;23843;51.320;12.340;2023-04-20T01:43:09;100651.56;;;5.63;100.00
38038;BME280;23843;51.320;12.340;2023-04-20T01:45:34;100646.28;;;5.65;100.00
38038;BME280;23843;51.320;12.340;2023-04-20T01:48:00;100647.19;;;5.64;100.00
38038;BME280;23843;51.320;12.340;2023-04-20T01:50:25;100645.38;;;5.66;100.00
38038;BME280;23843;51.320;12.340;2023-04-20T01:52:51;100647.94;;;5.67;100.00
38038;BME280;23843;51.320;12.340;2023-04-20T01:55:16;100653.41;;;5.61;100.00
38038;BME280;23843;51.320;12.340;2023-04-20T01:57:43;100649.22;;;5.54;100.00
38038;BME280;23843;51.320;12.340;2023-04-20T02:00:09;100650.06;;;5.54;100.00
38038;BME280;23843;51.320;12.340;2023-04-20T02:02:35;100648.44;;;5.50;100.00
38038;BME280;23843;51.320;12.340;2023-04-20T02:05:00;100646.72;;;5.49;100.00
38038;BME280;23843;51.320;12.340;2023-04-20T02:07:26;100642.22;;;5.53;100.00
38038;BME280;23843;51.320;12.340;2023-04-20T02:09:51;100641.38;;;5.52;100.00
38038;BME280;23843;51.320;12.340;2023-04-20T02:12:17;100635.28;;;5.50;100.00
38038;BME280;23843;51.320;12.340;2023-04-20T02:14:44;100642.19;;;5.54;100.00
38038;BME280;23843;51.320;12.340;2023-04-20T02:17:09;100637.78;;;5.55;100.00
38038;BME280;23843;51.320;12.340;2023-04-20T02:19:35;100646.50;;;5.57;100.00
38038;BME280;23843;51.320;12.340;2023-04-20T02:22:00;100642.47;;;5.44;100.00
38038;BME280;23843;51.320;12.340;2023-04-20T02:24:26;100637.38;;;5.39;100.00
38038;BME280;23843;51.320;12.340;2023-04-20T02:26:51;100641.00;;;5.35;100.00
38038;BME280;23843;51.320;12.340;2023-04-20T02:29:17;100636.59;;;5.35;100.00
38038;BME280;23843;51.320;12.340;2023-04-20T02:31:44;100640.91;;;5.38;100.00
38038;BME280;23843;51.320;12.340;2023-04-20T02:34:09;100646.34;;;5.32;100.00
38038;BME280;23843;51.320;12.340;2023-04-20T02:36:35;100642.63;;;5.39;100.00
38038;BME280;23843;51.320;12.340;2023-04-20T02:39:00;100643.19;;;5.50;100.00
38038;BME280;23843;51.320;12.340;2023-04-20T02:41:26;100644.03;;;5.51;100.00
38038;BME280;23843;51.320;12.340;2023-04-20T02:43:51;100652.06;;;5.46;100.00
38038;BME280;23843;51.320;12.340;2023-04-20T02:46:17;100646.84;;;5.45;100.00
38038;BME280;23843;51.320;12.340;2023-04-20T02:48:44;100646.88;;;5.43;100.00
38038;BME280;23843;51.320;12.340;2023-04-20T02:51:09;100644.47;;;5.35;100.00
38038;BME280;23843;51.320;12.340;2023-04-20T02:53:34;100644.78;;;5.25;100.00
38038;BME280;23843;51.320;12.340;2023-04-20T02:56:00;100654.47;;;5.23;100.00
38038;BME280;23843;51.320;12.340;2023-04-20T02:58:25;100649.44;;;5.13;100.00
38038;BME280;23843;51.320;12.340;2023-04-20T03:00:51;100651.19;;;5.14;100.00
38038;BME280;23843;51.320;12.340;2023-04-20T03:03:16;100643.22;;;5.18;100.00
38038;BME280;23843;51.320;12.340;2023-04-20T03:05:43;100635.97;;;5.26;100.00
38038;BME280;23843;51.320;12.340;2023-04-20T03:08:09;100644.78;;;5.25;100.00
38038;BME280;23843;51.320;12.340;2023-04-20T03:10:34;100638.47;;;5.32;100.00
38038;BME280;23843;51.320;12.340;2023-04-20T03:13:00;100638.34;;;5.36;100.00
38038;BME280;23843;51.320;12.340;2023-04-20T03:15:25;100644.56;;;5.32;100.00
38038;BME280;23843;51.320;12.340;2023-04-20T03:17:50;100631.56;;;5.28;100.00
38038;BME280;23843;51.320;12.340;2023-04-20T03:20:16;100632.53;;;5.24;100.00
38038;BME280;23843;51.320;12.340;2023-04-20T03:22:43;100637.72;;;5.27;100.00
38038;BME280;23843;51.320;12.340;2023-04-20T03:25:08;100635.13;;;5.25;100.00
38038;BME280;23843;51.320;12.340;2023-04-20T03:27:34;100638.56;;;5.27;100.00
38038;BME280;23843;51.320;12.340;2023-04-20T03:29:59;100636.78;;;5.29;100.00
38038;BME280;23843;51.320;12.340;2023-04-20T03:32:25;100639.25;;;5.34;100.00
38038;BME280;23843;51.320;12.340;2023-04-20T03:34:50;100641.16;;;5.29;100.00
38038;BME280;23843;51.320;12.340;2023-04-20T03:37:16;100648.38;;;5.21;100.00
38038;BME280;23843;51.320;12.340;2023-04-20T03:39:42;100641.56;;;5.13;100.00
38038;BME280;23843;51.320;12.340;2023-04-20T03:42:08;100646.50;;;4.93;100.00
38038;BME280;23843;51.320;12.340;2023-04-20T03:44:33;100647.34;;;4.95;100.00
38038;BME280;23843;51.320;12.340;2023-04-20T03:46:59;100641.06;;;4.99;100.00
38038;BME280;23843;51.320;12.340;2023-04-20T03:49:24;100649.97;;;4.95;100.00
38038;BME280;23843;51.320;12.340;2023-04-20T03:51:50;100642.97;;;4.94;100.00
38038;BME280;23843;51.320;12.340;2023-04-20T03:54:15;100647.34;;;4.95;100.00
38038;BME280;23843;51.320;12.340;2023-04-20T03:56:42;100647.34;;;4.95;100.00
38038;BME280;23843;51.320;12.340;2023-04-20T03:59:07;100650.84;;;4.94;100.00
38038;BME280;23843;51.320;12.340;2023-04-20T04:01:35;100651.78;;;4.91;100.00
38038;BME280;23843;51.320;12.340;2023-04-20T04:04:00;100648.22;;;4.94;100.00
38038;BME280;23843;51.320;12.340;2023-04-20T04:06:26;100640.34;;;4.94;100.00
38038;BME280;23843;51.320;12.340;2023-04-20T04:08:51;100642.97;;;4.94;100.00
38038;BME280;23843;51.320;12.340;2023-04-20T04:11:16;100654.38;;;4.93;100.00
38038;BME280;23843;51.320;12.340;2023-04-20T04:13:43;100650.75;;;4.97;100.00
38038;BME280;23843;51.320;12.340;2023-04-20T04:16:09;100652.28;;;5.06;100.00
38038;BME280;23843;51.320;12.340;2023-04-20T04:18:35;100652.25;;;5.07;100.00
38038;BME280;23843;51.320;12.340;2023-04-20T04:21:00;100654.72;;;5.12;100.00
38038;BME280;23843;51.320;12.340;2023-04-20T04:23:25;100652.06;;;5.13;100.00
38038;BME280;23843;51.320;12.340;2023-04-20T04:25:51;100644.31;;;5.09;100.00
38038;BME280;23843;51.320;12.340;2023-04-20T04:28:17;100646.09;;;5.08;100.00
38038;BME280;23843;51.320;12.340;2023-04-20T04:30:43;100654.00;;;5.07;100.00
38038;BME280;23843;51.320;12.340;2023-04-20T04:33:09;100654.09;;;5.04;100.00
38038;BME280;23843;51.320;12.340;2023-04-20T04:35:34;100663.97;;;4.94;100.00
38038;BME280;23843;51.320;12.340;2023-04-20T04:38:00;100664.78;;;4.96;100.00
38038;BME280;23843;51.320;12.340;2023-04-20T04:40:25;100665.78;;;4.92;100.00
38038;BME280;23843;51.320;12.340;2023-04-20T04:42:51;100663.09;;;4.95;100.00
38038;BME280;23843;51.320;12.340;2023-04-20T04:45:16;100663.56;;;5.09;100.00
38038;BME280;23843;51.320;12.340;2023-04-20T04:47:43;100666.88;;;5.16;100.00
38038;BME280;23843;51.320;12.340;2023-04-20T04:50:10;100670.44;;;5.15;100.00
38038;BME280;23843;51.320;12.340;2023-04-20T04:52:36;100672.25;;;5.11;100.00
38038;BME280;23843;51.320;12.340;2023-04-20T04:55:01;100673.09;;;5.13;100.00
38038;BME280;23843;51.320;12.340;2023-04-20T04:57:27;100672.00;;;5.22;100.00
38038;BME280;23843;51.320;12.340;2023-04-20T04:59:53;100672.63;;;5.30;100.00
38038;BME280;23843;51.320;12.340;2023-04-20T05:02:18;100674.34;;;5.31;100.00
38038;BME280;23843;51.320;12.340;2023-04-20T05:04:45;100675.16;;;5.33;100.00
38038;BME280;23843;51.320;12.340;2023-04-20T05:07:11;100674.22;;;5.36;100.00
38038;BME280;23843;51.320;12.340;2023-04-20T05:09:36;100680.88;;;5.49;100.00
38038;BME280;23843;51.320;12.340;2023-04-20T05:12:02;100677.09;;;5.60;100.00
38038;BME280;23843;51.320;12.340;2023-04-20T05:14:28;100678.72;;;5.64;100.00
38038;BME280;23843;51.320;12.340;2023-04-20T05:16:54;100677.09;;;5.60;100.00
38038;BME280;23843;51.320;12.340;2023-04-20T05:19:19;100685.06;;;5.56;100.00
38038;BME280;23843;51.320;12.340;2023-04-20T05:21:46;100698.19;;;5.56;100.00
38038;BME280;23843;51.320;12.340;2023-04-20T05:24:12;100677.09;;;5.60;100.00
38038;BME280;23843;51.320;12.340;2023-04-20T05:26:37;100682.59;;;5.50;100.00
38038;BME280;23843;51.320;12.340;2023-04-20T05:29:02;100683.50;;;5.49;100.00
38038;BME280;23843;51.320;12.340;2023-04-20T05:31:28;100690.59;;;5.46;100.00
38038;BME280;23843;51.320;12.340;2023-04-20T05:33:54;100691.78;;;5.34;100.00
38038;BME280;23843;51.320;12.340;2023-04-20T05:36:19;100697.66;;;5.44;100.00
38038;BME280;23843;51.320;12.340;2023-04-20T05:38:46;100707.84;;;5.56;100.00
38038;BME280;23843;51.320;12.340;2023-04-20T05:41:11;100705.84;;;5.66;100.00
38038;BME280;23843;51.320;12.340;2023-04-20T05:43:37;100709.47;;;5.60;100.00
38038;BME280;23843;51.320;12.340;2023-04-20T05:46:03;100706.72;;;5.65;100.00
38038;BME280;23843;51.320;12.340;2023-04-20T05:48:28;100715.69;;;5.57;100.00
38038;BME280;23843;51.320;12.340;2023-04-20T05:50:54;100716.31;;;5.34;100.00
38038;BME280;23843;51.320;12.340;2023-04-20T05:53:19;100717.16;;;5.36;100.00
38038;BME280;23843;51.320;12.340;2023-04-20T05:55:46;100729.16;;;5.45;100.00
38038;BME280;23843;51.320;12.340;2023-04-20T05:58:12;100730.72;;;5.52;100.00
38038;BME280;23843;51.320;12.340;2023-04-20T06:00:37;100735.06;;;5.53;100.00
38038;BME280;23843;51.320;12.340;2023-04-20T06:03:03;100733.09;;;5.62;100.00
38038;BME280;23843;51.320;12.340;2023-04-20T06:05:30;100731.91;;;5.73;100.00
38038;BME280;23843;51.320;12.340;2023-04-20T06:07:56;100736.69;;;5.90;100.00
38038;BME280;23843;51.320;12.340;2023-04-20T06:10:22;100741.78;;;5.96;100.00
38038;BME280;23843;51.320;12.340;2023-04-20T06:12:49;100739.16;;;5.96;100.00
38038;BME280;23843;51.320;12.340;2023-04-20T06:15:15;100748.63;;;6.02;100.00
38038;BME280;23843;51.320;12.340;2023-04-20T06:17:40;100743.38;;;6.02;100.00
38038;BME280;23843;51.320;12.340;2023-04-20T06:20:07;100742.72;;;5.92;100.00
38038;BME280;23843;51.320;12.340;2023-04-20T06:22:33;100743.47;;;5.99;100.00
38038;BME280;23843;51.320;12.340;2023-04-20T06:24:58;100742.25;;;6.11;100.00
38038;BME280;23843;51.320;12.340;2023-04-20T06:27:24;100750.53;;;5.97;100.00
38038;BME280;23843;51.320;12.340;2023-04-20T06:29:51;100751.13;;;6.07;100.00
38038;BME280;23843;51.320;12.340;2023-04-20T06:32:18;100739.66;;;6.09;100.00
38038;BME280;23843;51.320;12.340;2023-04-20T06:34:44;100749.50;;;6.03;100.00
38038;BME280;23843;51.320;12.340;2023-04-20T06:37:09;100758.06;;;5.78;100.00
38038;BME280;23843;51.320;12.340;2023-04-20T06:39:35;100759.53;;;5.88;100.00
38038;BME280;23843;51.320;12.340;2023-04-20T06:42:00;100754.06;;;5.96;100.00
38038;BME280;23843;51.320;12.340;2023-04-20T06:44:26;100760.66;;;6.11;100.00
38038;BME280;23843;51.320;12.340;2023-04-20T06:46:53;100765.28;;;6.03;100.00
38038;BME280;23843;51.320;12.340;2023-04-20T06:49:18;100755.84;;;5.95;100.00
38038;BME280;23843;51.320;12.340;2023-04-20T06:51:43;100756.38;;;6.07;100.00
38038;BME280;23843;51.320;12.340;2023-04-20T06:54:09;100762.66;;;6.32;100.00
38038;BME280;23843;51.320;12.340;2023-04-20T06:56:34;100759.59;;;6.74;100.00
38038;BME280;23843;51.320;12.340;2023-04-20T06:59:00;100762.38;;;6.41;100.00
38038;BME280;23843;51.320;12.340;2023-04-20T07:01:25;100763.78;;;6.24;100.00
38038;BME280;23843;51.320;12.340;2023-04-20T07:03:52;100765.53;;;6.25;100.00
38038;BME280;23843;51.320;12.340;2023-04-20T07:06:18;100765.09;;;6.38;100.00
38038;BME280;23843;51.320;12.340;2023-04-20T07:08:43;100762.19;;;6.48;100.00
38038;BME280;23843;51.320;12.340;2023-04-20T07:11:09;100756.75;;;6.54;100.00
38038;BME280;23843;51.320;12.340;2023-04-20T07:13:34;100754.44;;;6.43;100.00
38038;BME280;23843;51.320;12.340;2023-04-20T07:16:00;100759.38;;;6.24;100.00
38038;BME280;23843;51.320;12.340;2023-04-20T07:18:25;100756.97;;;6.46;100.00
38038;BME280;23843;51.320;12.340;2023-04-20T07:20:52;100760.63;;;6.42;100.00
38038;BME280;23843;51.320;12.340;2023-04-20T07:23:18;100776.94;;;6.24;100.00
38038;BME280;23843;51.320;12.340;2023-04-20T07:25:43;100763.25;;;5.79;100.00
38038;BME280;23843;51.320;12.340;2023-04-20T07:28:08;100748.94;;;5.90;100.00
38038;BME280;23843;51.320;12.340;2023-04-20T07:30:34;100749.66;;;6.26;100.00
38038;BME280;23843;51.320;12.340;2023-04-20T07:32:59;100753.41;;;6.75;100.00
38038;BME280;23843;51.320;12.340;2023-04-20T07:35:25;100752.84;;;7.20;100.00
38038;BME280;23843;51.320;12.340;2023-04-20T07:37:52;100748.72;;;8.57;100.00
38038;BME280;23843;51.320;12.340;2023-04-20T07:40:17;100753.75;;;10.08;100.00
38038;BME280;23843;51.320;12.340;2023-04-20T07:42:43;100755.69;;;10.05;100.00
38038;BME280;23843;51.320;12.340;2023-04-20T07:45:09;100757.81;;;9.78;100.00
38038;BME280;23843;51.320;12.340;2023-04-20T07:47:35;100757.44;;;9.24;97.93
38038;BME280;23843;51.320;12.340;2023-04-20T07:50:01;100746.59;;;10.67;100.00
38038;BME280;23843;51.320;12.340;2023-04-20T07:52:27;100755.56;;;11.36;94.89
38038;BME280;23843;51.320;12.340;2023-04-20T07:54:54;100751.81;;;12.73;84.69
38038;BME280;23843;51.320;12.340;2023-04-20T07:57:19;100754.28;;;12.76;72.98
38038;BME280;23843;51.320;12.340;2023-04-20T07:59:45;100754.41;;;13.51;67.70
38038;BME280;23843;51.320;12.340;2023-04-20T08:02:11;100770.31;;;13.21;71.58
38038;BME280;23843;51.320;12.340;2023-04-20T08:04:36;100764.91;;;12.45;66.34
38038;BME280;23843;51.320;12.340;2023-04-20T08:07:02;100765.53;;;12.01;68.65
38038;BME280;23843;51.320;12.340;2023-04-20T08:09:27;100763.31;;;11.75;72.48
38038;BME280;23843;51.320;12.340;2023-04-20T08:11:54;100761.28;;;12.77;70.94
38038;BME280;23843;51.320;12.340;2023-04-20T08:14:20;100758.28;;;14.46;70.05
38038;BME280;23843;51.320;12.340;2023-04-20T08:16:45;100754.28;;;15.34;73.02
38038;BME280;23843;51.320;12.340;2023-04-20T08:19:11;100761.63;;;15.83;54.88
38038;BME280;23843;51.320;12.340;2023-04-20T08:21:36;100750.00;;;16.84;47.41
38038;BME280;23843;51.320;12.340;2023-04-20T08:24:02;100748.34;;;16.94;47.14
38038;BME280;23843;51.320;12.340;2023-04-20T08:26:27;100731.22;;;18.35;49.52
38038;BME280;23843;51.320;12.340;2023-04-20T08:28:54;100725.47;;;19.48;43.88
38038;BME280;23843;51.320;12.340;2023-04-20T08:31:20;100723.63;;;19.90;37.61
38038;BME280;23843;51.320;12.340;2023-04-20T08:33:45;100725.53;;;20.49;43.28
38038;BME280;23843;51.320;12.340;2023-04-20T08:36:11;100722.06;;;20.28;38.23
38038;BME280;23843;51.320;12.340;2023-04-20T08:38:36;100725.47;;;20.80;37.59
38038;BME280;23843;51.320;12.340;2023-04-20T08:41:02;100715.97;;;21.15;36.04
38038;BME280;23843;51.320;12.340;2023-04-20T08:43:27;100724.03;;;21.34;32.68
38038;BME280;23843;51.320;12.340;2023-04-20T08:45:57;100714.50;;;21.69;34.06
38038;BME280;23843;51.320;12.340;2023-04-20T08:48:23;100724.63;;;22.32;35.37
38038;BME280;23843;51.320;12.340;2023-04-20T08:50:49;100726.59;;;21.07;31.44
38038;BME280;23843;51.320;12.340;2023-04-20T08:53:15;100730.25;;;20.67;35.50
38038;BME280;23843;51.320;12.340;2023-04-20T08:55:40;100739.31;;;19.85;34.33
38038;BME280;23843;51.320;12.340;2023-04-20T08:58:06;100733.91;;;19.64;36.51
38038;BME280;23843;51.320;12.340;2023-04-20T09:00:31;100730.22;;;19.65;36.83
38038;BME280;23843;51.320;12.340;2023-04-20T09:02:58;100720.28;;;19.35;35.57
38038;BME280;23843;51.320;12.340;2023-04-20T09:05:25;100724.69;;;18.71;36.73
38038;BME280;23843;51.320;12.340;2023-04-20T09:07:51;100741.75;;;17.46;38.78
38038;BME280;23843;51.320;12.340;2023-04-20T09:10:16;100726.38;;;16.78;40.52
38038;BME280;23843;51.320;12.340;2023-04-20T09:12:42;100729.66;;;16.08;41.57
38038;BME280;23843;51.320;12.340;2023-04-20T09:15:23;100740.13;;;16.11;42.20
38038;BME280;23843;51.320;12.340;2023-04-20T09:17:49;100751.44;;;15.63;43.47
38038;BME280;23843;51.320;12.340;2023-04-20T09:20:26;100743.00;;;16.20;45.10
38038;BME280;23843;51.320;12.340;2023-04-20T09:22:51;100755.16;;;17.22;41.71
38038;BME280;23843;51.320;12.340;2023-04-20T09:25:17;100739.63;;;18.19;41.48
38038;BME280;23843;51.320;12.340;2023-04-20T09:27:42;100746.25;;;18.92;37.95
38038;BME280;23843;51.320;12.340;2023-04-20T09:30:18;100759.88;;;17.19;37.98
38038;BME280;23843;51.320;12.340;2023-04-20T09:32:45;100747.28;;;16.60;40.57
38038;BME280;23843;51.320;12.340;2023-04-20T09:35:11;100747.06;;;15.62;43.33
38038;BME280;23843;51.320;12.340;2023-04-20T09:37:47;100750.84;;;15.19;44.00
38038;BME280;23843;51.320;12.340;2023-04-20T09:40:13;100747.41;;;15.05;44.98
38038;BME280;23843;51.320;12.340;2023-04-20T09:42:40;100750.41;;;15.13;45.79
38038;BME280;23843;51.320;12.340;2023-04-20T09:45:07;100740.25;;;15.83;45.26
38038;BME280;23843;51.320;12.340;2023-04-20T09:47:34;100744.53;;;15.73;43.91
38038;BME280;23843;51.320;12.340;2023-04-20T09:49:59;100743.41;;;15.50;43.97
38038;BME280;23843;51.320;12.340;2023-04-20T09:52:25;100752.06;;;15.01;44.51
38038;BME280;23843;51.320;12.340;2023-04-20T09:54:53;100741.69;;;14.69;46.24
38038;BME280;23843;51.320;12.340;2023-04-20T09:57:19;100748.59;;;14.45;46.43
38038;BME280;23843;51.320;12.340;2023-04-20T09:59:46;100748.63;;;14.02;48.35
38038;BME280;23843;51.320;12.340;2023-04-20T10:02:12;100755.47;;;14.20;48.71
38038;BME280;23843;51.320;12.340;2023-04-20T10:04:51;100766.38;;;13.58;49.68
38038;BME280;23843;51.320;12.340;2023-04-20T10:07:22;100759.03;;;13.17;51.76
38038;BME280;23843;51.320;12.340;2023-04-20T10:09:48;100754.94;;;13.26;53.08
38038;BME280;23843;51.320;12.340;2023-04-20T10:12:14;100768.63;;;13.20;54.41
38038;BME280;23843;51.320;12.340;2023-04-20T10:14:40;100762.59;;;12.86;56.37
38038;BME280;23843;51.320;12.340;2023-04-20T10:17:07;100758.53;;;12.95;55.40
38038;BME280;23843;51.320;12.340;2023-04-20T10:19:38;100763.75;;;12.96;56.84
38038;BME280;23843;51.320;12.340;2023-04-20T10:22:03;100767.88;;;13.02;56.33
38038;BME280;23843;51.320;12.340;2023-04-20T10:24:29;100759.78;;;12.73;58.08
38038;BME280;23843;51.320;12.340;2023-04-20T10:26:55;100754.91;;;12.34;61.66
38038;BME280;23843;51.320;12.340;2023-04-20T10:29:26;100751.72;;;12.27;62.90
38038;BME280;23843;51.320;12.340;2023-04-20T10:31:52;100749.81;;;12.29;62.39
38038;BME280;23843;51.320;12.340;2023-04-20T10:34:28;100741.41;;;12.21;61.10
38038;BME280;23843;51.320;12.340;2023-04-20T10:36:54;100741.03;;;12.11;57.95
38038;BME280;23843;51.320;12.340;2023-04-20T10:39:19;100734.56;;;12.17;56.33
38038;BME280;23843;51.320;12.340;2023-04-20T10:41:52;100722.66;;;12.24;56.84
38038;BME280;23843;51.320;12.340;2023-04-20T10:44:17;100707.06;;;12.34;57.75
38038;BME280;23843;51.320;12.340;2023-04-20T10:46:47;100706.38;;;12.30;59.18
38038;BME280;23843;51.320;12.340;2023-04-20T10:49:12;100706.72;;;12.24;60.68
38038;BME280;23843;51.320;12.340;2023-04-20T10:51:45;100701.66;;;12.35;60.50
38038;BME280;23843;51.320;12.340;2023-04-20T10:54:11;100709.28;;;12.41;60.00
38038;BME280;23843;51.320;12.340;2023-04-20T10:56:37;100706.28;;;12.16;61.18
38038;BME280;23843;51.320;12.340;2023-04-20T10:59:06;100708.41;;;11.93;61.64
38038;BME280;23843;51.320;12.340;2023-04-20T11:01:32;100704.03;;;11.75;62.15
38038;BME280;23843;51.320;12.340;2023-04-20T11:03:59;100704.41;;;11.51;63.63
38038;BME280;23843;51.320;12.340;2023-04-20T11:06:25;100698.63;;;11.26;65.75
38038;BME280;23843;51.320;12.340;2023-04-20T11:08:51;100696.84;;;11.09;68.74
38038;BME280;23843;51.320;12.340;2023-04-20T11:11:17;100709.59;;;11.02;70.27
38038;BME280;23843;51.320;12.340;2023-04-20T11:13:42;100700.00;;;11.17;70.41
38038;BME280;23843;51.320;12.340;2023-04-20T11:16:10;100710.03;;;11.10;70.70
38038;BME280;23843;51.320;12.340;2023-04-20T11:18:35;100691.53;;;11.09;70.71
38038;BME280;23843;51.320;12.340;2023-04-20T11:21:02;100702.53;;;10.84;73.99
38038;BME280;23843;51.320;12.340;2023-04-20T11:23:36;100701.22;;;10.39;80.83
38038;BME280;23843;51.320;12.340;2023-04-20T11:26:02;100692.78;;;10.48;80.04
38038;BME280;23843;51.320;12.340;2023-04-20T11:28:27;100690.03;;;10.32;83.03
38038;BME280;23843;51.320;12.340;2023-04-20T11:30:53;100697.25;;;10.10;83.10
38038;BME280;23843;51.320;12.340;2023-04-20T11:33:24;100694.59;;;10.28;83.69
38038;BME280;23843;51.320;12.340;2023-04-20T11:35:49;100696.59;;;10.23;84.99
38038;BME280;23843;51.320;12.340;2023-04-20T11:38:25;100695.88;;;10.20;86.14
38038;BME280;23843;51.320;12.340;2023-04-20T11:40:51;100693.44;;;10.15;86.33
38038;BME280;23843;51.320;12.340;2023-04-20T11:43:17;100693.03;;;10.05;85.89
38038;BME280;23843;51.320;12.340;2023-04-20T11:45:42;100696.59;;;10.04;87.51
38038;BME280;23843;51.320;12.340;2023-04-20T11:48:08;100694.19;;;10.00;86.78
38038;BME280;23843;51.320;12.340;2023-04-20T11:50:33;100692.59;;;9.96;87.41
38038;BME280;23843;51.320;12.340;2023-04-20T11:52:59;100689.28;;;9.72;90.82
38038;BME280;23843;51.320;12.340;2023-04-20T11:55:25;100693.91;;;9.67;90.66
38038;BME280;23843;51.320;12.340;2023-04-20T11:57:51;100687.22;;;9.58;94.61
38038;BME280;23843;51.320;12.340;2023-04-20T12:00:17;100695.47;;;9.52;95.69
38038;BME280;23843;51.320;12.340;2023-04-20T12:02:43;100699.81;;;9.53;95.60
38038;BME280;23843;51.320;12.340;2023-04-20T12:05:08;100691.91;;;9.32;96.41
38038;BME280;23843;51.320;12.340;2023-04-20T12:07:33;100697.66;;;9.42;94.39
38038;BME280;23843;51.320;12.340;2023-04-20T12:09:59;100674.06;;;9.37;99.13
38038;BME280;23843;51.320;12.340;2023-04-20T12:12:26;100684.13;;;9.48;96.85
38038;BME280;23843;51.320;12.340;2023-04-20T12:14:51;100676.41;;;9.43;98.15
38038;BME280;23843;51.320;12.340;2023-04-20T12:17:18;100681.84;;;9.61;94.56
38038;BME280;23843;51.320;12.340;2023-04-20T12:19:43;100686.22;;;9.41;100.00
38038;BME280;23843;51.320;12.340;2023-04-20T12:22:09;100682.91;;;9.36;98.78
38038;BME280;23843;51.320;12.340;2023-04-20T12:24:34;100676.63;;;9.39;100.00
38038;BME280;23843;51.320;12.340;2023-04-20T12:26:59;100681.50;;;9.48;100.00
38038;BME280;23843;51.320;12.340;2023-04-20T12:29:26;100681.59;;;9.47;100.00
38038;BME280;23843;51.320;12.340;2023-04-20T12:31:52;100675.75;;;9.38;100.00
38038;BME280;23843;51.320;12.340;2023-04-20T12:34:17;100658.13;;;9.58;100.00